createdAt,value
2023-04-10T00:03:12.807Z,36.03
2023-04-10T00:08:19.081Z,36.13
2023-04-10T00:13:25.169Z,34.07
2023-04-10T00:18:26.824Z,35.87
2023-04-10T00:23:34.738Z,35.60
2023-04-10T00:28:38.158Z,36.03
2023-04-10T00:33:44.358Z,36.70
2023-04-10T00:38:48.753Z,32.90
2023-04-10T00:43:56.931Z,34.20
2023-04-10T00:48:58.681Z,33.43
2023-04-10T00:54:03.548Z,32.93
2023-04-10T00:59:07.138Z,34.27
2023-04-10T01:04:11.778Z,36.47
2023-04-10T01:09:32.095Z,35.90
2023-04-10T01:15:28.278Z,35.87
2023-04-10T01:20:36.161Z,34.07
2023-04-10T01:25:44.995Z,32.87
2023-04-10T01:30:51.377Z,34.33
2023-04-10T01:35:56.493Z,34.03
2023-04-10T01:41:02.070Z,32.03
2023-04-10T01:46:05.384Z,35.40
2023-04-10T01:51:10.396Z,34.37
2023-04-10T01:56:12.823Z,35.93
2023-04-10T02:01:29.006Z,36.67
2023-04-10T02:06:46.096Z,34.87
2023-04-10T02:12:02.528Z,35.80
2023-04-10T02:17:07.163Z,35.83
2023-04-10T02:22:12.054Z,36.67
2023-04-10T02:27:13.736Z,36.17
2023-04-10T02:32:17.362Z,36.10
2023-04-10T02:37:23.726Z,36.47
2023-04-10T02:42:28.132Z,37.47
2023-04-10T02:47:33.554Z,38.43
2023-04-10T02:52:38.174Z,38.90
2023-04-10T02:57:40.994Z,39.63
2023-04-10T03:02:46.094Z,40.20
2023-04-10T03:07:53.989Z,40.30
2023-04-10T03:12:59.512Z,39.77
2023-04-10T03:18:01.324Z,40.77
2023-04-10T03:23:04.766Z,40.40
2023-04-10T03:28:06.535Z,40.40
2023-04-10T03:33:08.472Z,41.57
2023-04-10T03:38:12.755Z,40.43
2023-04-10T03:43:14.529Z,41.40
2023-04-10T03:48:20.891Z,40.13
2023-04-10T03:53:23.374Z,39.97
2023-04-10T03:58:29.658Z,41.53
2023-04-10T04:03:31.938Z,41.17
2023-04-10T04:08:36.334Z,41.97
2023-04-10T04:13:49.326Z,43.20
2023-04-10T04:19:09.467Z,42.07
2023-04-10T04:24:20.392Z,41.40
2023-04-10T04:29:36.100Z,41.00
2023-04-10T04:35:03.682Z,40.20
2023-04-10T04:40:26.948Z,40.43
2023-04-10T04:45:38.235Z,40.13
2023-04-10T04:50:43.601Z,39.93
2023-04-10T04:55:56.906Z,40.17
2023-04-10T05:01:27.898Z,40.90
2023-04-10T05:06:45.628Z,40.37
2023-04-10T05:12:06.036Z,39.27
2023-04-10T05:17:26.654Z,38.27
2023-04-10T05:22:40.592Z,38.67
2023-04-10T05:27:51.168Z,38.63
2023-04-10T05:33:15.090Z,39.30
2023-04-10T05:38:35.805Z,37.10
2023-04-10T05:43:48.513Z,37.83
2023-04-10T05:49:04.437Z,36.50
2023-04-10T05:54:38.006Z,35.87
2023-04-10T06:00:02.101Z,32.97
2023-04-10T06:05:16.030Z,33.23
2023-04-10T06:10:21.211Z,34.13
2023-04-10T06:15:29.474Z,32.83
2023-04-10T06:20:32.332Z,32.83
2023-04-10T06:25:36.520Z,32.53
2023-04-10T06:30:43.505Z,26.53
2023-04-10T06:35:45.603Z,29.80
2023-04-10T06:40:47.814Z,30.83
2023-04-10T06:45:49.609Z,28.83
2023-04-10T06:50:51.278Z,29.60
2023-04-10T06:55:55.466Z,27.93
2023-04-10T07:00:57.952Z,28.37
2023-04-10T07:06:03.463Z,28.33
2023-04-10T07:11:07.569Z,28.03
2023-04-10T07:16:12.502Z,27.43
2023-04-10T07:21:14.273Z,27.47
2023-04-10T07:26:16.501Z,26.60
2023-04-10T07:31:21.060Z,25.90
2023-04-10T07:36:27.043Z,26.60
2023-04-10T07:41:28.816Z,24.10
2023-04-10T07:46:30.514Z,21.40
2023-04-10T07:51:34.626Z,23.23
2023-04-10T07:56:36.391Z,21.87
2023-04-10T08:01:38.128Z,22.67
2023-04-10T08:06:39.869Z,22.57
2023-04-10T08:11:41.579Z,20.17
2023-04-10T08:16:43.304Z,21.73
2023-04-10T08:21:45.051Z,19.20
2023-04-10T08:26:49.669Z,19.65
2023-04-10T08:31:54.553Z,17.83
2023-04-10T08:36:59.625Z,18.08
2023-04-10T08:42:02.498Z,16.83
2023-04-10T08:47:05.974Z,15.30
2023-04-10T08:52:14.778Z,15.60
2023-04-10T08:57:20.904Z,14.05
2023-04-10T09:02:25.340Z,14.23
2023-04-10T09:07:29.756Z,13.30
2023-04-10T09:12:43.621Z,13.30
2023-04-10T09:17:55.616Z,12.02
2023-04-10T09:22:59.713Z,12.10
2023-04-10T09:28:09.730Z,11.70
2023-04-10T09:33:27.910Z,10.88
2023-04-10T09:38:36.741Z,9.93
2023-04-10T09:43:39.136Z,10.95
2023-04-10T09:48:55.001Z,9.77
2023-04-10T09:54:01.393Z,10.00
2023-04-10T09:59:04.858Z,9.48
2023-04-10T10:04:08.112Z,8.98
2023-04-10T10:09:09.921Z,9.35
2023-04-10T10:14:15.668Z,8.18
2023-04-10T10:19:31.538Z,6.43
2023-04-10T10:24:36.913Z,6.38
2023-04-10T10:29:41.172Z,4.93
2023-04-10T10:34:43.205Z,5.80
2023-04-10T10:39:57.175Z,4.95
2023-04-10T10:45:10.851Z,5.45
2023-04-10T10:50:14.805Z,5.20
2023-04-10T10:55:22.434Z,6.30
2023-04-10T11:00:26.026Z,5.85
2023-04-10T11:05:48.793Z,5.32
2023-04-10T11:11:03.658Z,6.03
2023-04-10T11:16:07.193Z,6.60
2023-04-10T11:21:10.715Z,5.82
2023-04-10T11:26:12.514Z,5.40
2023-04-10T11:31:22.080Z,5.78
2023-04-10T11:36:24.365Z,5.78
2023-04-10T11:41:34.277Z,5.70
2023-04-10T11:46:40.575Z,5.68
2023-04-10T11:51:46.384Z,5.40
2023-04-10T11:57:06.338Z,5.50
2023-04-10T12:02:15.261Z,5.38
2023-04-10T12:07:17.245Z,4.80
2023-04-10T12:12:20.589Z,4.72
2023-04-10T12:17:27.266Z,5.20
2023-04-10T12:22:29.058Z,5.07
2023-04-10T12:27:33.185Z,5.00
2023-04-10T12:32:37.170Z,5.07
2023-04-10T12:37:52.470Z,5.20
2023-04-10T12:42:54.253Z,5.25
2023-04-10T12:47:56.426Z,5.10
2023-04-10T12:53:09.426Z,6.15
2023-04-10T12:58:20.649Z,5.57
2023-04-10T13:03:27.663Z,4.82
2023-04-10T13:08:32.575Z,5.03
2023-04-10T13:13:36.878Z,4.38
2023-04-10T13:18:38.949Z,4.65
2023-04-10T13:23:47.010Z,4.47
2023-04-10T13:28:51.042Z,4.93
2023-04-10T13:33:55.944Z,4.70
2023-04-10T13:38:59.867Z,4.20
2023-04-10T13:44:04.260Z,4.50
2023-04-10T13:49:06.124Z,4.18
2023-04-10T13:54:12.313Z,4.35
2023-04-10T13:59:16.730Z,4.72
2023-04-10T14:04:18.997Z,4.20
2023-04-10T14:09:20.732Z,4.30
2023-04-10T14:14:25.293Z,4.47
2023-04-10T14:19:29.424Z,5.03
2023-04-10T14:24:31.126Z,4.40
2023-04-10T14:29:40.573Z,3.72
2023-04-10T14:34:46.910Z,4.28
2023-04-10T14:39:48.724Z,5.05
2023-04-10T14:44:53.419Z,5.38
2023-04-10T14:50:00.182Z,4.78
2023-04-10T14:55:02.215Z,4.47
2023-04-10T15:00:04.673Z,4.43
2023-04-10T15:05:07.027Z,4.60
2023-04-10T15:10:10.648Z,4.30
2023-04-10T15:15:17.654Z,4.00
2023-04-10T15:20:31.443Z,3.45
2023-04-10T15:25:33.995Z,3.60
2023-04-10T15:30:35.932Z,3.47
2023-04-10T15:35:37.789Z,3.50
2023-04-10T15:40:39.664Z,3.30
2023-04-10T15:45:41.598Z,4.25
2023-04-10T15:50:43.493Z,3.60
2023-04-10T15:55:45.209Z,3.50
2023-04-10T16:00:47.345Z,3.28
2023-04-10T16:05:53.581Z,3.58
2023-04-10T16:10:56.167Z,3.10
2023-04-10T16:15:57.970Z,3.20
2023-04-10T16:21:03.075Z,3.17
2023-04-10T16:26:05.332Z,3.30
2023-04-10T16:31:07.326Z,3.38
2023-04-10T16:36:16.704Z,4.10
2023-04-10T16:41:20.993Z,4.47
2023-04-10T16:46:22.926Z,3.60
2023-04-10T16:51:27.555Z,3.40
2023-04-10T16:56:31.624Z,3.08
2023-04-10T17:01:39.596Z,3.00
2023-04-10T17:06:41.384Z,2.75
2023-04-10T17:11:47.663Z,2.43
2023-04-10T17:16:49.899Z,1.83
2023-04-10T17:21:56.430Z,2.40
2023-04-10T17:27:02.989Z,2.60
2023-04-10T17:32:06.328Z,2.15
2023-04-10T17:37:10.564Z,2.17
2023-04-10T17:42:14.646Z,2.00
2023-04-10T17:47:18.877Z,2.10
2023-04-10T17:52:22.994Z,2.00
2023-04-10T17:57:25.310Z,2.30
2023-04-10T18:02:31.989Z,2.40
2023-04-10T18:07:36.104Z,2.40
2023-04-10T18:12:40.553Z,2.20
2023-04-10T18:17:42.312Z,1.60
2023-04-10T18:22:44.416Z,1.95
2023-04-10T18:28:04.586Z,2.10
2023-04-10T18:33:19.458Z,1.85
2023-04-10T18:38:26.144Z,2.50
2023-04-10T18:43:30.438Z,3.00
2023-04-10T18:48:34.683Z,2.83
2023-04-10T18:53:41.363Z,2.60
2023-04-10T18:58:43.038Z,2.88
2023-04-10T19:03:52.402Z,1.92
2023-04-10T19:08:55.907Z,2.70
2023-04-10T19:14:00.877Z,2.97
2023-04-10T19:19:02.736Z,3.03
2023-04-10T19:24:04.700Z,3.67
2023-04-10T19:29:08.816Z,3.80
2023-04-10T19:34:13.634Z,4.40
2023-04-10T19:39:18.261Z,4.90
2023-04-10T19:44:20.266Z,5.20
2023-04-10T19:49:22.013Z,5.72
2023-04-10T19:54:26.249Z,5.63
2023-04-10T19:59:28.792Z,5.80
2023-04-10T20:04:33.136Z,7.07
2023-04-10T20:09:34.973Z,5.88
2023-04-10T20:14:38.395Z,6.20
2023-04-10T20:19:40.553Z,4.70
2023-04-10T20:24:42.275Z,5.43
2023-04-10T20:29:44.039Z,6.63
2023-04-10T20:34:48.875Z,5.40
2023-04-10T20:39:53.608Z,6.00
2023-04-10T20:44:55.485Z,5.33
2023-04-10T20:49:57.205Z,6.80
2023-04-10T20:54:58.958Z,7.30
2023-04-10T21:00:03.290Z,7.43
2023-04-10T21:05:07.571Z,6.83
2023-04-10T21:10:09.369Z,7.27
2023-04-10T21:15:15.775Z,6.83
2023-04-10T21:20:22.195Z,7.23
2023-04-10T21:25:23.933Z,7.53
2023-04-10T21:30:25.664Z,6.72
2023-04-10T21:35:29.780Z,6.47
2023-04-10T21:40:34.363Z,6.78
2023-04-10T21:45:37.472Z,6.40
2023-04-10T21:50:39.781Z,6.97
2023-04-10T21:55:43.727Z,6.03
2023-04-10T22:00:47.261Z,6.80
2023-04-10T22:05:54.527Z,7.10
2023-04-10T22:10:56.271Z,7.47
2023-04-10T22:16:02.211Z,6.83
2023-04-10T22:21:11.314Z,8.00
2023-04-10T22:26:13.072Z,6.63
2023-04-10T22:31:18.246Z,6.57
2023-04-10T22:36:22.531Z,6.30
2023-04-10T22:41:29.562Z,6.30
2023-04-10T22:46:33.551Z,6.00
2023-04-10T22:51:35.314Z,5.77
2023-04-10T22:56:39.869Z,5.83
2023-04-10T23:01:41.675Z,5.50
2023-04-10T23:06:43.443Z,5.70
2023-04-10T23:11:46.140Z,5.80
2023-04-10T23:16:52.577Z,6.17
2023-04-10T23:21:59.089Z,5.97
2023-04-10T23:27:00.774Z,5.43
2023-04-10T23:32:04.949Z,5.67
2023-04-10T23:37:06.622Z,5.90
2023-04-10T23:42:08.277Z,6.23
2023-04-10T23:47:12.517Z,6.03
2023-04-10T23:52:14.166Z,6.07
2023-04-10T23:57:15.848Z,6.00
